sensor_id;sensor_type;location;lat;lon;timestamp;P1;durP1;ratioP1;P2;durP2;ratioP2
36241;SDS011;22283;42.748;12.732;2023-02-22T00:03:50;11.38;;;7.53;;
36241;SDS011;22283;42.748;12.732;2023-02-22T00:08:51;9.75;;;6.90;;
36241;SDS011;22283;42.748;12.732;2023-02-22T00:13:52;12.30;;;6.80;;
36241;SDS011;22283;42.748;12.732;2023-02-22T00:18:56;16.00;;;6.70;;
36241;SDS011;22283;42.748;12.732;2023-02-22T00:23:57;15.90;;;8.17;;
36241;SDS011;22283;42.748;12.732;2023-02-22T00:28:57;9.73;;;6.57;;
36241;SDS011;22283;42.748;12.732;2023-02-22T00:33:58;10.07;;;6.20;;
36241;SDS011;22283;42.748;12.732;2023-02-22T00:38:59;9.43;;;6.65;;
36241;SDS011;22283;42.748;12.732;2023-02-22T00:44:00;10.00;;;6.83;;
36241;SDS011;22283;42.748;12.732;2023-02-22T00:49:00;14.20;;;7.10;;
36241;SDS011;22283;42.748;12.732;2023-02-22T00:54:01;9.00;;;6.93;;
36241;SDS011;22283;42.748;12.732;2023-02-22T00:59:04;11.40;;;6.93;;
36241;SDS011;22283;42.748;12.732;2023-02-22T01:04:05;10.85;;;6.80;;
36241;SDS011;22283;42.748;12.732;2023-02-22T01:09:06;10.23;;;6.17;;
36241;SDS011;22283;42.748;12.732;2023-02-22T01:14:07;8.50;;;6.10;;
36241;SDS011;22283;42.748;12.732;2023-02-22T01:19:09;10.18;;;7.10;;
36241;SDS011;22283;42.748;12.732;2023-02-22T01:24:12;7.82;;;6.32;;
36241;SDS011;22283;42.748;12.732;2023-02-22T01:29:15;9.40;;;5.85;;
36241;SDS011;22283;42.748;12.732;2023-02-22T01:34:17;7.20;;;5.93;;
36241;SDS011;22283;42.748;12.732;2023-02-22T01:39:18;9.37;;;5.90;;
36241;SDS011;22283;42.748;12.732;2023-02-22T01:44:23;15.07;;;7.35;;
36241;SDS011;22283;42.748;12.732;2023-02-22T01:49:29;13.77;;;9.38;;
36241;SDS011;22283;42.748;12.732;2023-02-22T01:54:37;12.20;;;7.22;;
36241;SDS011;22283;42.748;12.732;2023-02-22T01:59:42;12.73;;;9.23;;
36241;SDS011;22283;42.748;12.732;2023-02-22T02:04:45;13.07;;;9.13;;
36241;SDS011;22283;42.748;12.732;2023-02-22T02:09:58;13.35;;;5.95;;
36241;SDS011;22283;42.748;12.732;2023-02-22T02:15:21;10.05;;;6.22;;
36241;SDS011;22283;42.748;12.732;2023-02-22T02:20:26;8.07;;;5.75;;
36241;SDS011;22283;42.748;12.732;2023-02-22T02:25:56;10.57;;;5.88;;
36241;SDS011;22283;42.748;12.732;2023-02-22T02:36:29;11.90;;;8.13;;
36241;SDS011;22283;42.748;12.732;2023-02-22T02:41:39;15.73;;;9.90;;
36241;SDS011;22283;42.748;12.732;2023-02-22T02:46:50;11.15;;;8.80;;
36241;SDS011;22283;42.748;12.732;2023-02-22T02:51:51;14.55;;;8.57;;
36241;SDS011;22283;42.748;12.732;2023-02-22T02:56:56;13.75;;;8.65;;
36241;SDS011;22283;42.748;12.732;2023-02-22T03:07:30;12.90;;;8.43;;
36241;SDS011;22283;42.748;12.732;2023-02-22T03:17:55;27.00;;;9.32;;
36241;SDS011;22283;42.748;12.732;2023-02-22T03:23:07;12.80;;;8.52;;
36241;SDS011;22283;42.748;12.732;2023-02-22T03:28:14;10.82;;;7.13;;
36241;SDS011;22283;42.748;12.732;2023-02-22T03:33:22;11.00;;;6.97;;
36241;SDS011;22283;42.748;12.732;2023-02-22T03:38:35;10.13;;;6.45;;
36241;SDS011;22283;42.748;12.732;2023-02-22T03:43:41;9.15;;;6.20;;
36241;SDS011;22283;42.748;12.732;2023-02-22T03:53:56;11.15;;;8.35;;
36241;SDS011;22283;42.748;12.732;2023-02-22T03:59:04;10.65;;;7.05;;
36241;SDS011;22283;42.748;12.732;2023-02-22T04:04:06;10.20;;;7.97;;
36241;SDS011;22283;42.748;12.732;2023-02-22T04:09:09;13.88;;;8.93;;
36241;SDS011;22283;42.748;12.732;2023-02-22T04:14:10;15.87;;;7.87;;
36241;SDS011;22283;42.748;12.732;2023-02-22T04:19:11;12.93;;;7.72;;
36241;SDS011;22283;42.748;12.732;2023-02-22T04:24:13;11.15;;;7.40;;
36241;SDS011;22283;42.748;12.732;2023-02-22T04:29:15;12.25;;;7.47;;
36241;SDS011;22283;42.748;12.732;2023-02-22T04:34:18;12.20;;;7.63;;
36241;SDS011;22283;42.748;12.732;2023-02-22T04:39:19;14.10;;;7.33;;
36241;SDS011;22283;42.748;12.732;2023-02-22T04:44:19;10.97;;;6.63;;
36241;SDS011;22283;42.748;12.732;2023-02-22T04:49:20;11.67;;;6.70;;
36241;SDS011;22283;42.748;12.732;2023-02-22T04:54:21;10.30;;;6.97;;
36241;SDS011;22283;42.748;12.732;2023-02-22T04:59:22;12.70;;;6.37;;
36241;SDS011;22283;42.748;12.732;2023-02-22T05:04:29;12.80;;;6.65;;
36241;SDS011;22283;42.748;12.732;2023-02-22T05:09:29;9.83;;;6.23;;
36241;SDS011;22283;42.748;12.732;2023-02-22T05:14:30;19.77;;;6.87;;
36241;SDS011;22283;42.748;12.732;2023-02-22T05:19:31;12.40;;;8.30;;
36241;SDS011;22283;42.748;12.732;2023-02-22T05:24:32;13.83;;;7.23;;
36241;SDS011;22283;42.748;12.732;2023-02-22T05:29:32;17.37;;;9.27;;
36241;SDS011;22283;42.748;12.732;2023-02-22T05:34:33;13.40;;;9.90;;
36241;SDS011;22283;42.748;12.732;2023-02-22T05:39:33;17.13;;;8.17;;
36241;SDS011;22283;42.748;12.732;2023-02-22T05:44:34;17.17;;;9.07;;
36241;SDS011;22283;42.748;12.732;2023-02-22T05:49:34;54.67;;;12.20;;
36241;SDS011;22283;42.748;12.732;2023-02-22T05:54:35;15.97;;;9.60;;
36241;SDS011;22283;42.748;12.732;2023-02-22T05:59:36;18.50;;;8.13;;
36241;SDS011;22283;42.748;12.732;2023-02-22T06:04:36;21.63;;;9.73;;
36241;SDS011;22283;42.748;12.732;2023-02-22T06:09:37;25.27;;;8.73;;
36241;SDS011;22283;42.748;12.732;2023-02-22T06:14:38;23.03;;;9.27;;
36241;SDS011;22283;42.748;12.732;2023-02-22T06:19:40;64.05;;;11.60;;
36241;SDS011;22283;42.748;12.732;2023-02-22T06:24:40;34.20;;;10.87;;
36241;SDS011;22283;42.748;12.732;2023-02-22T06:29:44;21.57;;;9.87;;
36241;SDS011;22283;42.748;12.732;2023-02-22T06:34:46;20.17;;;9.80;;
36241;SDS011;22283;42.748;12.732;2023-02-22T06:39:48;29.95;;;9.25;;
36241;SDS011;22283;42.748;12.732;2023-02-22T06:44:48;24.17;;;9.07;;
36241;SDS011;22283;42.748;12.732;2023-02-22T06:49:52;24.47;;;8.67;;
36241;SDS011;22283;42.748;12.732;2023-02-22T06:54:54;17.52;;;7.85;;
36241;SDS011;22283;42.748;12.732;2023-02-22T06:59:54;46.60;;;11.30;;
36241;SDS011;22283;42.748;12.732;2023-02-22T07:04:55;22.70;;;9.33;;
36241;SDS011;22283;42.748;12.732;2023-02-22T07:09:55;18.70;;;8.50;;
36241;SDS011;22283;42.748;12.732;2023-02-22T07:14:56;20.20;;;8.90;;
36241;SDS011;22283;42.748;12.732;2023-02-22T07:19:57;19.47;;;8.30;;
36241;SDS011;22283;42.748;12.732;2023-02-22T07:24:57;40.70;;;13.23;;
36241;SDS011;22283;42.748;12.732;2023-02-22T07:29:59;18.50;;;10.13;;
36241;SDS011;22283;42.748;12.732;2023-02-22T07:35:00;17.03;;;10.87;;
36241;SDS011;22283;42.748;12.732;2023-02-22T07:40:02;14.63;;;10.98;;
36241;SDS011;22283;42.748;12.732;2023-02-22T07:45:03;17.67;;;12.87;;
36241;SDS011;22283;42.748;12.732;2023-02-22T07:50:04;16.87;;;12.73;;
36241;SDS011;22283;42.748;12.732;2023-02-22T07:55:05;18.13;;;13.63;;
36241;SDS011;22283;42.748;12.732;2023-02-22T08:00:08;22.25;;;15.13;;
36241;SDS011;22283;42.748;12.732;2023-02-22T08:05:13;27.55;;;15.80;;
36241;SDS011;22283;42.748;12.732;2023-02-22T08:10:14;30.17;;;18.27;;
36241;SDS011;22283;42.748;12.732;2023-02-22T08:15:18;33.72;;;23.40;;
36241;SDS011;22283;42.748;12.732;2023-02-22T08:20:21;34.03;;;18.77;;
36241;SDS011;22283;42.748;12.732;2023-02-22T08:25:23;20.85;;;16.35;;
36241;SDS011;22283;42.748;12.732;2023-02-22T08:30:26;24.17;;;14.90;;
36241;SDS011;22283;42.748;12.732;2023-02-22T08:35:29;23.20;;;15.45;;
36241;SDS011;22283;42.748;12.732;2023-02-22T08:40:32;23.23;;;15.50;;
36241;SDS011;22283;42.748;12.732;2023-02-22T08:45:34;37.47;;;15.25;;
36241;SDS011;22283;42.748;12.732;2023-02-22T08:50:35;22.37;;;16.47;;
36241;SDS011;22283;42.748;12.732;2023-02-22T08:55:37;30.27;;;16.23;;
36241;SDS011;22283;42.748;12.732;2023-02-22T09:00:39;21.40;;;15.63;;
36241;SDS011;22283;42.748;12.732;2023-02-22T09:10:42;34.63;;;20.85;;
36241;SDS011;22283;42.748;12.732;2023-02-22T09:15:44;32.58;;;20.13;;
36241;SDS011;22283;42.748;12.732;2023-02-22T09:20:45;38.83;;;22.77;;
36241;SDS011;22283;42.748;12.732;2023-02-22T09:25:46;32.67;;;19.80;;
36241;SDS011;22283;42.748;12.732;2023-02-22T09:35:48;31.30;;;19.60;;
36241;SDS011;22283;42.748;12.732;2023-02-22T09:40:51;27.45;;;19.48;;
36241;SDS011;22283;42.748;12.732;2023-02-22T09:46:20;29.25;;;20.77;;
36241;SDS011;22283;42.748;12.732;2023-02-22T09:51:28;43.42;;;25.60;;
36241;SDS011;22283;42.748;12.732;2023-02-22T09:56:34;37.67;;;24.45;;
36241;SDS011;22283;42.748;12.732;2023-02-22T10:06:38;30.73;;;20.50;;
36241;SDS011;22283;42.748;12.732;2023-02-22T10:23:10;25.95;;;14.93;;
36241;SDS011;22283;42.748;12.732;2023-02-22T10:28:27;20.95;;;12.98;;
36241;SDS011;22283;42.748;12.732;2023-02-22T10:33:38;24.55;;;13.90;;
36241;SDS011;22283;42.748;12.732;2023-02-22T10:38:53;22.70;;;12.85;;
36241;SDS011;22283;42.748;12.732;2023-02-22T10:44:00;26.52;;;14.85;;
36241;SDS011;22283;42.748;12.732;2023-02-22T10:49:03;28.08;;;16.17;;
36241;SDS011;22283;42.748;12.732;2023-02-22T10:59:34;22.05;;;15.15;;
36241;SDS011;22283;42.748;12.732;2023-02-22T11:04:50;18.60;;;12.60;;
36241;SDS011;22283;42.748;12.732;2023-02-22T11:10:00;15.27;;;10.70;;
36241;SDS011;22283;42.748;12.732;2023-02-22T11:20:19;25.92;;;13.00;;
36241;SDS011;22283;42.748;12.732;2023-02-22T11:25:26;18.95;;;13.27;;
36241;SDS011;22283;42.748;12.732;2023-02-22T11:30:31;16.55;;;12.20;;
36241;SDS011;22283;42.748;12.732;2023-02-22T11:35:36;18.05;;;10.98;;
36241;SDS011;22283;42.748;12.732;2023-02-22T12:01:52;20.20;;;10.63;;
36241;SDS011;22283;42.748;12.732;2023-02-22T12:23:17;15.98;;;9.40;;
36241;SDS011;22283;42.748;12.732;2023-02-22T12:33:50;18.30;;;8.90;;
36241;SDS011;22283;42.748;12.732;2023-02-22T12:39:02;10.13;;;6.78;;
36241;SDS011;22283;42.748;12.732;2023-02-22T12:44:14;10.80;;;7.00;;
36241;SDS011;22283;42.748;12.732;2023-02-22T12:49:21;11.18;;;7.13;;
36241;SDS011;22283;42.748;12.732;2023-02-22T12:54:47;8.88;;;6.00;;
36241;SDS011;22283;42.748;12.732;2023-02-22T12:59:56;11.70;;;7.40;;
36241;SDS011;22283;42.748;12.732;2023-02-22T13:05:11;15.68;;;9.07;;
36241;SDS011;22283;42.748;12.732;2023-02-22T13:16:14;12.65;;;8.60;;
36241;SDS011;22283;42.748;12.732;2023-02-22T13:26:59;15.07;;;9.23;;
36241;SDS011;22283;42.748;12.732;2023-02-22T13:43:09;19.75;;;9.82;;
36241;SDS011;22283;42.748;12.732;2023-02-22T13:53:55;17.10;;;9.25;;
36241;SDS011;22283;42.748;12.732;2023-02-22T13:59:05;16.85;;;8.68;;
36241;SDS011;22283;42.748;12.732;2023-02-22T14:15:07;22.52;;;12.80;;
36241;SDS011;22283;42.748;12.732;2023-02-22T14:30:41;11.95;;;6.68;;
36241;SDS011;22283;42.748;12.732;2023-02-22T14:35:41;10.00;;;5.77;;
36241;SDS011;22283;42.748;12.732;2023-02-22T14:40:43;16.35;;;6.38;;
36241;SDS011;22283;42.748;12.732;2023-02-22T14:45:48;10.80;;;7.35;;
36241;SDS011;22283;42.748;12.732;2023-02-22T14:50:58;14.57;;;6.97;;
36241;SDS011;22283;42.748;12.732;2023-02-22T14:56:19;17.10;;;7.77;;
36241;SDS011;22283;42.748;12.732;2023-02-22T15:06:31;21.05;;;7.35;;
36241;SDS011;22283;42.748;12.732;2023-02-22T15:11:34;32.33;;;9.35;;
36241;SDS011;22283;42.748;12.732;2023-02-22T15:16:35;33.43;;;9.90;;
36241;SDS011;22283;42.748;12.732;2023-02-22T15:21:43;28.23;;;9.88;;
36241;SDS011;22283;42.748;12.732;2023-02-22T15:26:45;19.88;;;8.70;;
36241;SDS011;22283;42.748;12.732;2023-02-22T15:31:46;15.88;;;9.77;;
36241;SDS011;22283;42.748;12.732;2023-02-22T15:36:47;26.40;;;8.93;;
36241;SDS011;22283;42.748;12.732;2023-02-22T15:47:16;15.85;;;9.25;;
36241;SDS011;22283;42.748;12.732;2023-02-22T15:52:19;17.58;;;9.02;;
36241;SDS011;22283;42.748;12.732;2023-02-22T15:57:23;20.45;;;8.80;;
36241;SDS011;22283;42.748;12.732;2023-02-22T16:02:30;15.30;;;8.13;;
36241;SDS011;22283;42.748;12.732;2023-02-22T16:07:36;29.02;;;16.05;;
36241;SDS011;22283;42.748;12.732;2023-02-22T16:12:44;22.08;;;9.73;;
36241;SDS011;22283;42.748;12.732;2023-02-22T16:17:45;22.50;;;8.10;;
36241;SDS011;22283;42.748;12.732;2023-02-22T16:22:48;24.30;;;9.00;;
36241;SDS011;22283;42.748;12.732;2023-02-22T16:27:50;16.02;;;8.68;;
36241;SDS011;22283;42.748;12.732;2023-02-22T16:33:03;23.55;;;10.05;;
36241;SDS011;22283;42.748;12.732;2023-02-22T16:38:12;31.02;;;13.32;;
36241;SDS011;22283;42.748;12.732;2023-02-22T16:43:16;23.17;;;11.95;;
36241;SDS011;22283;42.748;12.732;2023-02-22T16:48:26;24.63;;;14.73;;
36241;SDS011;22283;42.748;12.732;2023-02-22T16:53:29;26.30;;;12.55;;
36241;SDS011;22283;42.748;12.732;2023-02-22T16:58:33;27.90;;;12.70;;
36241;SDS011;22283;42.748;12.732;2023-02-22T17:03:37;29.45;;;14.68;;
36241;SDS011;22283;42.748;12.732;2023-02-22T17:08:38;28.03;;;18.40;;
36241;SDS011;22283;42.748;12.732;2023-02-22T17:13:40;28.70;;;17.75;;
36241;SDS011;22283;42.748;12.732;2023-02-22T17:18:40;31.40;;;16.40;;
36241;SDS011;22283;42.748;12.732;2023-02-22T17:23:42;35.50;;;16.87;;
36241;SDS011;22283;42.748;12.732;2023-02-22T17:28:45;33.30;;;17.38;;
36241;SDS011;22283;42.748;12.732;2023-02-22T17:33:45;30.27;;;16.33;;
36241;SDS011;22283;42.748;12.732;2023-02-22T17:38:46;31.23;;;17.57;;
36241;SDS011;22283;42.748;12.732;2023-02-22T17:43:47;34.63;;;20.23;;
36241;SDS011;22283;42.748;12.732;2023-02-22T17:48:47;33.87;;;21.97;;
36241;SDS011;22283;42.748;12.732;2023-02-22T17:53:48;29.40;;;19.43;;
36241;SDS011;22283;42.748;12.732;2023-02-22T17:58:51;25.10;;;15.23;;
36241;SDS011;22283;42.748;12.732;2023-02-22T18:03:54;39.97;;;19.92;;
36241;SDS011;22283;42.748;12.732;2023-02-22T18:08:57;41.05;;;22.55;;
36241;SDS011;22283;42.748;12.732;2023-02-22T18:13:59;28.40;;;16.17;;
36241;SDS011;22283;42.748;12.732;2023-02-22T18:19:00;37.38;;;18.73;;
36241;SDS011;22283;42.748;12.732;2023-02-22T18:24:02;30.65;;;16.38;;
36241;SDS011;22283;42.748;12.732;2023-02-22T18:29:03;31.33;;;17.98;;
36241;SDS011;22283;42.748;12.732;2023-02-22T18:39:05;34.78;;;19.67;;
36241;SDS011;22283;42.748;12.732;2023-02-22T18:44:10;25.52;;;16.95;;
36241;SDS011;22283;42.748;12.732;2023-02-22T18:49:12;40.10;;;20.17;;
36241;SDS011;22283;42.748;12.732;2023-02-22T18:54:13;47.63;;;18.55;;
36241;SDS011;22283;42.748;12.732;2023-02-22T18:59:14;34.10;;;21.07;;
36241;SDS011;22283;42.748;12.732;2023-02-22T19:04:14;65.00;;;37.30;;
36241;SDS011;22283;42.748;12.732;2023-02-22T19:09:17;37.58;;;21.40;;
36241;SDS011;22283;42.748;12.732;2023-02-22T19:14:17;43.30;;;20.07;;
36241;SDS011;22283;42.748;12.732;2023-02-22T19:19:19;42.42;;;19.80;;
36241;SDS011;22283;42.748;12.732;2023-02-22T19:24:20;47.20;;;20.42;;
36241;SDS011;22283;42.748;12.732;2023-02-22T19:29:21;34.20;;;18.83;;
36241;SDS011;22283;42.748;12.732;2023-02-22T19:34:23;28.77;;;18.67;;
36241;SDS011;22283;42.748;12.732;2023-02-22T19:39:26;25.70;;;17.05;;
36241;SDS011;22283;42.748;12.732;2023-02-22T19:44:28;37.45;;;20.90;;
36241;SDS011;22283;42.748;12.732;2023-02-22T19:49:29;37.30;;;17.53;;
36241;SDS011;22283;42.748;12.732;2023-02-22T19:54:30;55.83;;;38.53;;
36241;SDS011;22283;42.748;12.732;2023-02-22T19:59:30;34.23;;;24.43;;
36241;SDS011;22283;42.748;12.732;2023-02-22T20:04:31;27.90;;;16.50;;
36241;SDS011;22283;42.748;12.732;2023-02-22T20:14:36;41.15;;;30.65;;
36241;SDS011;22283;42.748;12.732;2023-02-22T20:19:37;25.42;;;14.13;;
36241;SDS011;22283;42.748;12.732;2023-02-22T20:29:41;22.05;;;12.63;;
36241;SDS011;22283;42.748;12.732;2023-02-22T20:34:45;25.07;;;13.73;;
36241;SDS011;22283;42.748;12.732;2023-02-22T20:39:46;24.40;;;13.77;;
36241;SDS011;22283;42.748;12.732;2023-02-22T20:44:49;25.83;;;13.13;;
36241;SDS011;22283;42.748;12.732;2023-02-22T20:49:50;23.93;;;13.83;;
36241;SDS011;22283;42.748;12.732;2023-02-22T20:54:52;22.23;;;12.43;;
36241;SDS011;22283;42.748;12.732;2023-02-22T20:59:53;21.73;;;11.97;;
36241;SDS011;22283;42.748;12.732;2023-02-22T21:04:53;20.53;;;12.00;;
36241;SDS011;22283;42.748;12.732;2023-02-22T21:09:54;18.70;;;12.03;;
36241;SDS011;22283;42.748;12.732;2023-02-22T21:14:56;23.55;;;12.30;;
36241;SDS011;22283;42.748;12.732;2023-02-22T21:19:57;18.40;;;12.03;;
36241;SDS011;22283;42.748;12.732;2023-02-22T21:24:58;23.03;;;11.77;;
36241;SDS011;22283;42.748;12.732;2023-02-22T21:29:58;20.53;;;11.37;;
36241;SDS011;22283;42.748;12.732;2023-02-22T21:34:59;17.47;;;10.03;;
36241;SDS011;22283;42.748;12.732;2023-02-22T21:40:00;21.33;;;10.03;;
36241;SDS011;22283;42.748;12.732;2023-02-22T21:45:00;25.60;;;9.40;;
36241;SDS011;22283;42.748;12.732;2023-02-22T21:50:01;16.97;;;8.57;;
36241;SDS011;22283;42.748;12.732;2023-02-22T21:55:02;18.77;;;8.47;;
36241;SDS011;22283;42.748;12.732;2023-02-22T22:00:03;18.43;;;8.77;;
36241;SDS011;22283;42.748;12.732;2023-02-22T22:05:17;18.40;;;9.85;;
36241;SDS011;22283;42.748;12.732;2023-02-22T22:10:30;43.20;;;21.55;;
36241;SDS011;22283;42.748;12.732;2023-02-22T22:15:32;37.58;;;20.90;;
36241;SDS011;22283;42.748;12.732;2023-02-22T22:20:35;41.30;;;20.42;;
36241;SDS011;22283;42.748;12.732;2023-02-22T22:25:37;30.67;;;16.83;;
36241;SDS011;22283;42.748;12.732;2023-02-22T22:30:38;17.13;;;9.17;;
36241;SDS011;22283;42.748;12.732;2023-02-22T22:35:39;17.27;;;9.00;;
36241;SDS011;22283;42.748;12.732;2023-02-22T22:40:41;19.73;;;7.82;;
36241;SDS011;22283;42.748;12.732;2023-02-22T22:45:41;20.00;;;8.70;;
36241;SDS011;22283;42.748;12.732;2023-02-22T22:50:42;18.80;;;8.32;;
36241;SDS011;22283;42.748;12.732;2023-02-22T22:55:46;14.90;;;7.63;;
36241;SDS011;22283;42.748;12.732;2023-02-22T23:00:46;16.90;;;8.00;;
36241;SDS011;22283;42.748;12.732;2023-02-22T23:05:47;19.40;;;10.40;;
36241;SDS011;22283;42.748;12.732;2023-02-22T23:10:47;12.67;;;7.73;;
36241;SDS011;22283;42.748;12.732;2023-02-22T23:15:48;16.93;;;8.43;;
36241;SDS011;22283;42.748;12.732;2023-02-22T23:20:50;15.48;;;7.93;;
36241;SDS011;22283;42.748;12.732;2023-02-22T23:26:07;16.13;;;8.13;;
36241;SDS011;22283;42.748;12.732;2023-02-22T23:31:17;15.25;;;8.15;;
36241;SDS011;22283;42.748;12.732;2023-02-22T23:36:18;12.23;;;7.50;;
36241;SDS011;22283;42.748;12.732;2023-02-22T23:41:19;21.73;;;8.95;;
36241;SDS011;22283;42.748;12.732;2023-02-22T23:46:19;24.87;;;10.03;;
36241;SDS011;22283;42.748;12.732;2023-02-22T23:51:21;16.10;;;8.50;;
36241;SDS011;22283;42.748;12.732;2023-02-22T23:56:26;14.45;;;8.20;;
